createdAt,value
2019-01-02T00:02:16.640Z,5.03
2019-01-02T00:04:47.800Z,4.60
2019-01-02T00:07:18.137Z,5.70
2019-01-02T00:09:48.634Z,6.43
2019-01-02T00:12:19.084Z,6.27
2019-01-02T00:14:49.502Z,5.33
2019-01-02T00:17:19.904Z,6.67
2019-01-02T00:19:51.013Z,5.27
2019-01-02T00:22:23.706Z,5.75
2019-01-02T00:24:54.151Z,5.10
2019-01-02T00:27:24.671Z,5.45
2019-01-02T00:29:55.385Z,5.30
2019-01-02T00:32:25.592Z,5.63
2019-01-02T00:34:55.767Z,6.30
2019-01-02T00:37:25.846Z,6.30
2019-01-02T00:39:56.027Z,2.10
2019-01-02T00:42:26.579Z,2.53
2019-01-02T00:44:56.784Z,3.20
2019-01-02T00:47:27.293Z,3.30
2019-01-02T00:49:57.853Z,2.43
2019-01-02T00:52:28.602Z,2.53
2019-01-02T00:54:58.685Z,2.87
2019-01-02T00:57:29.335Z,2.80
2019-01-02T00:59:59.670Z,3.00
2019-01-02T01:02:30.223Z,2.80
2019-01-02T01:05:01.348Z,2.23
2019-01-02T01:07:34.144Z,2.57
2019-01-02T01:10:04.654Z,3.10
2019-01-02T01:12:35.114Z,2.67
2019-01-02T01:15:06.082Z,2.07
2019-01-02T01:17:36.755Z,1.80
2019-01-02T01:20:07.837Z,1.90
2019-01-02T01:22:38.265Z,2.00
2019-01-02T01:25:08.337Z,1.47
2019-01-02T01:27:38.495Z,1.70
2019-01-02T01:30:09.695Z,1.63
2019-01-02T01:32:39.911Z,1.53
2019-01-02T01:35:12.394Z,1.90
2019-01-02T01:37:49.472Z,2.00
2019-01-02T01:40:19.625Z,2.10
2019-01-02T01:42:49.871Z,1.80
2019-01-02T01:45:20.350Z,2.33
2019-01-02T01:47:50.555Z,1.90
2019-01-02T01:50:21.072Z,1.80
2019-01-02T01:52:51.170Z,1.93
2019-01-02T01:55:21.420Z,1.60
2019-01-02T01:57:52.095Z,1.57
2019-01-02T02:00:24.017Z,1.97
2019-01-02T02:02:54.204Z,1.90
2019-01-02T02:05:24.749Z,2.20
2019-01-02T02:07:55.074Z,1.33
2019-01-02T02:10:25.119Z,2.00
2019-01-02T02:12:55.229Z,1.97
2019-01-02T02:15:25.299Z,1.80
2019-01-02T02:17:55.843Z,1.73
2019-01-02T02:20:26.145Z,2.30
2019-01-02T02:22:56.229Z,2.10
2019-01-02T02:25:26.717Z,2.50
2019-01-02T02:27:57.107Z,2.00
2019-01-02T02:30:27.215Z,2.03
2019-01-02T02:32:57.357Z,1.80
2019-01-02T02:35:27.413Z,2.67
2019-01-02T02:37:58.255Z,2.00
2019-01-02T02:40:28.332Z,2.50
2019-01-02T02:42:58.479Z,2.60
2019-01-02T02:45:28.893Z,1.77
2019-01-02T02:47:59.387Z,2.37
2019-01-02T02:50:29.917Z,2.30
2019-01-02T02:53:00.239Z,1.87
2019-01-02T02:55:31.703Z,2.90
2019-01-02T02:58:02.423Z,2.00
2019-01-02T03:00:32.505Z,2.27
2019-01-02T03:03:02.911Z,2.93
2019-01-02T03:05:33.298Z,1.90
2019-01-02T03:08:03.477Z,1.60
2019-01-02T03:10:33.830Z,1.80
2019-01-02T03:13:04.477Z,1.67
2019-01-02T03:15:34.732Z,2.30
2019-01-02T03:18:05.549Z,1.83
2019-01-02T03:20:35.688Z,1.83
2019-01-02T03:23:05.836Z,1.63
2019-01-02T03:25:36.807Z,1.90
2019-01-02T03:28:07.544Z,2.30
2019-01-02T03:30:38.307Z,2.17
2019-01-02T03:33:08.935Z,2.30
2019-01-02T03:35:38.977Z,2.60
2019-01-02T03:38:09.149Z,2.10
2019-01-02T03:51:24.976Z,2.03
2019-01-02T03:53:55.402Z,1.87
2019-01-02T03:56:25.590Z,2.60
2019-01-02T03:58:55.764Z,2.80
2019-01-02T04:01:25.968Z,2.23
2019-01-02T04:03:56.016Z,3.10
2019-01-02T04:06:26.357Z,2.95
2019-01-02T04:09:09.701Z,2.73
2019-01-02T04:11:52.600Z,2.80
2019-01-02T04:14:22.666Z,3.13
2019-01-02T04:16:52.748Z,3.63
2019-01-02T04:19:22.928Z,2.40
2019-01-02T04:21:53.074Z,2.90
2019-01-02T04:24:23.247Z,2.03
2019-01-02T04:26:53.541Z,2.00
2019-01-02T04:29:23.743Z,1.83
2019-01-02T04:31:53.810Z,3.20
2019-01-02T04:34:23.883Z,3.20
2019-01-02T04:36:53.928Z,1.80
2019-01-02T04:39:23.994Z,2.10
2019-01-02T04:51:59.607Z,2.73
2019-01-02T04:54:30.483Z,2.80
2019-01-02T04:57:00.817Z,2.47
2019-01-02T04:59:30.927Z,2.50
2019-01-02T05:02:01.098Z,2.57
2019-01-02T05:04:31.162Z,3.07
2019-01-02T05:07:01.216Z,2.63
2019-01-02T05:09:31.185Z,2.00
2019-01-02T05:12:01.293Z,2.47
2019-01-02T05:14:31.742Z,2.65
2019-01-02T05:17:03.103Z,2.40
2019-01-02T05:19:33.299Z,3.07
2019-01-02T05:22:03.551Z,3.03
2019-01-02T05:24:33.892Z,2.07
2019-01-02T05:27:04.090Z,2.60
2019-01-02T05:29:34.061Z,1.93
2019-01-02T05:32:04.094Z,2.50
2019-01-02T05:34:34.126Z,2.17
2019-01-02T05:37:04.232Z,3.00
2019-01-02T05:39:34.324Z,2.73
2019-01-02T05:42:04.425Z,2.50
2019-01-02T05:44:34.840Z,2.08
2019-01-02T05:47:05.158Z,3.33
2019-01-02T05:49:35.206Z,2.20
2019-01-02T05:52:05.449Z,2.03
2019-01-02T05:54:35.860Z,3.02
2019-01-02T05:57:06.558Z,2.20
2019-01-02T05:59:36.890Z,2.75
2019-01-02T06:02:07.171Z,3.80
2019-01-02T06:04:37.343Z,4.13
2019-01-02T06:07:07.518Z,3.03
2019-01-02T06:09:38.161Z,2.80
2019-01-02T06:12:08.266Z,4.70
2019-01-02T06:14:38.489Z,3.20
2019-01-02T06:17:08.638Z,2.60
2019-01-02T06:19:39.089Z,3.27
2019-01-02T06:22:09.568Z,2.70
2019-01-02T06:24:39.744Z,3.60
2019-01-02T06:27:10.366Z,2.20
2019-01-02T06:29:40.491Z,3.77
2019-01-02T06:32:10.605Z,4.03
2019-01-02T06:34:40.923Z,4.10
2019-01-02T06:37:11.359Z,4.30
2019-01-02T06:39:41.415Z,4.17
2019-01-02T06:42:11.521Z,4.57
2019-01-02T06:44:41.691Z,3.97
2019-01-02T06:47:11.836Z,4.57
2019-01-02T06:49:42.234Z,4.80
2019-01-02T06:52:12.680Z,5.23
2019-01-02T06:54:42.840Z,3.40
2019-01-02T06:57:13.200Z,3.52
2019-01-02T06:59:43.418Z,4.73
2019-01-02T07:02:13.585Z,5.00
2019-01-02T07:04:43.666Z,4.97
2019-01-02T07:07:13.791Z,5.17
2019-01-02T07:09:44.206Z,4.72
2019-01-02T07:12:14.531Z,4.12
2019-01-02T07:14:44.616Z,4.43
2019-01-02T07:17:14.804Z,4.77
2019-01-02T07:19:44.928Z,3.30
2019-01-02T07:22:15.321Z,5.22
2019-01-02T07:24:45.475Z,4.17
2019-01-02T07:27:15.595Z,4.67
2019-01-02T07:29:45.740Z,3.63
2019-01-02T07:32:15.809Z,3.70
2019-01-02T07:35:36.038Z,4.80
2019-01-02T07:38:28.667Z,4.67
2019-01-02T07:41:39.624Z,4.10
2019-01-02T07:44:28.030Z,5.73
2019-01-02T07:47:45.073Z,4.20
2019-01-02T07:50:53.139Z,5.25
2019-01-02T07:53:56.260Z,4.40
2019-01-02T07:56:59.677Z,4.70
2019-01-02T08:00:13.755Z,4.47
2019-01-02T08:03:26.895Z,5.00
2019-01-02T08:06:27.795Z,4.67
2019-01-02T08:09:37.199Z,5.17
2019-01-02T08:12:23.194Z,5.35
2019-01-02T08:15:23.714Z,5.05
2019-01-02T08:18:16.372Z,5.67
2019-01-02T08:21:39.700Z,6.23
2019-01-02T08:24:31.461Z,3.93
2019-01-02T08:27:50.631Z,5.53
2019-01-02T08:30:34.016Z,5.20
2019-01-02T08:33:40.618Z,5.73
2019-01-02T08:36:42.347Z,5.40
2019-01-02T08:39:53.578Z,6.63
2019-01-02T08:43:09.294Z,5.93
2019-01-02T08:46:10.144Z,6.05
2019-01-02T08:49:26.267Z,6.03
2019-01-02T08:52:25.038Z,5.63
2019-01-02T08:55:45.600Z,6.23
2019-01-02T08:59:09.467Z,5.83
2019-01-02T09:02:06.262Z,5.77
2019-01-02T09:05:10.673Z,5.33
2019-01-02T09:08:04.478Z,5.50
2019-01-02T09:11:19.711Z,5.27
2019-01-02T09:14:15.341Z,6.33
2019-01-02T09:17:49.274Z,5.03
2019-01-02T09:20:44.671Z,5.10
2019-01-02T09:23:51.939Z,6.47
2019-01-02T09:26:58.928Z,5.90
2019-01-02T09:30:14.603Z,6.33
2019-01-02T09:33:32.634Z,5.03
2019-01-02T09:36:36.760Z,4.90
2019-01-02T09:39:48.417Z,6.30
2019-01-02T09:43:24.558Z,6.93
2019-01-02T09:46:42.789Z,4.70
2019-01-02T09:49:55.789Z,6.35
2019-01-02T09:52:44.713Z,6.70
2019-01-02T09:55:50.082Z,6.20
2019-01-02T09:59:19.482Z,7.53
2019-01-02T10:02:30.486Z,4.30
2019-01-02T10:05:45.178Z,5.87
2019-01-02T10:08:41.563Z,6.37
2019-01-02T10:11:38.343Z,5.53
2019-01-02T10:14:40.933Z,5.10
2019-01-02T10:17:50.832Z,4.43
2019-01-02T10:21:11.517Z,5.77
2019-01-02T10:24:11.637Z,6.03
2019-01-02T10:27:18.470Z,4.65
2019-01-02T10:30:28.442Z,5.10
2019-01-02T10:33:30.617Z,4.73
2019-01-02T10:36:36.324Z,3.93
2019-01-02T10:39:41.755Z,6.50
2019-01-02T10:42:44.087Z,4.83
2019-01-02T10:45:37.406Z,4.77
2019-01-02T10:48:27.303Z,5.67
2019-01-02T10:51:26.425Z,5.47
2019-01-02T10:54:43.417Z,4.77
2019-01-02T10:57:54.677Z,5.40
2019-01-02T11:00:48.723Z,4.80
2019-01-02T11:03:47.206Z,4.40
2019-01-02T11:06:59.896Z,4.60
2019-01-02T11:10:22.914Z,5.20
2019-01-02T11:13:46.010Z,5.87
2019-01-02T11:17:03.292Z,7.12
2019-01-02T11:19:52.967Z,6.13
2019-01-02T11:22:58.434Z,5.53
2019-01-02T11:26:05.363Z,5.47
2019-01-02T11:29:15.054Z,3.90
2019-01-02T11:32:40.923Z,5.00
2019-01-02T11:36:07.093Z,5.97
2019-01-02T11:39:18.311Z,3.70
2019-01-02T11:42:18.261Z,4.77
2019-01-02T11:45:04.667Z,4.67
2019-01-02T11:47:34.757Z,4.43
2019-01-02T11:50:06.787Z,5.50
2019-01-02T11:52:36.834Z,4.77
2019-01-02T11:55:07.343Z,4.97
2019-01-02T11:57:37.687Z,5.80
2019-01-02T12:00:12.388Z,4.80
2019-01-02T12:02:42.621Z,4.17
2019-01-02T12:05:12.791Z,5.10
2019-01-02T12:07:42.881Z,4.40
2019-01-02T12:10:13.963Z,4.17
2019-01-02T12:12:44.109Z,4.27
2019-01-02T12:15:14.099Z,5.93
2019-01-02T12:17:44.188Z,5.13
2019-01-02T12:20:14.428Z,5.23
2019-01-02T12:22:44.864Z,3.97
2019-01-02T12:25:14.995Z,4.70
2019-01-02T12:27:47.146Z,3.93
2019-01-02T12:30:17.154Z,4.37
2019-01-02T12:32:47.256Z,4.10
2019-01-02T12:35:17.727Z,4.80
2019-01-02T12:37:47.828Z,4.27
2019-01-02T12:40:18.083Z,4.60
2019-01-02T12:42:48.159Z,5.17
2019-01-02T12:45:19.078Z,4.23
2019-01-02T12:47:50.159Z,5.20
2019-01-02T12:50:20.231Z,4.03
2019-01-02T12:52:50.392Z,5.23
2019-01-02T12:55:20.610Z,4.83
2019-01-02T12:57:51.005Z,4.13
2019-01-02T13:00:20.994Z,5.10
2019-01-02T13:03:17.047Z,4.40
2019-01-02T13:06:41.355Z,4.53
2019-01-02T13:09:42.144Z,3.90
2019-01-02T13:12:58.917Z,5.17
2019-01-02T13:16:03.686Z,3.93
2019-01-02T13:19:10.664Z,4.50
2019-01-02T13:22:10.531Z,3.07
2019-01-02T13:25:09.696Z,5.20
2019-01-02T13:28:01.481Z,5.00
2019-01-02T13:30:58.825Z,5.20
2019-01-02T13:34:13.054Z,3.80
2019-01-02T13:37:12.083Z,5.57
2019-01-02T13:40:21.133Z,7.00
2019-01-02T13:43:35.158Z,4.43
2019-01-02T13:46:43.674Z,5.10
2019-01-02T13:49:41.438Z,5.00
2019-01-02T13:52:11.512Z,5.20
2019-01-02T13:54:41.597Z,4.50
2019-01-02T13:57:11.766Z,4.40
2019-01-02T13:59:42.198Z,4.67
2019-01-02T14:02:12.374Z,1.97
2019-01-02T14:04:45.178Z,2.37
2019-01-02T14:07:15.364Z,1.77
2019-01-02T14:09:45.526Z,2.10
2019-01-02T14:12:15.734Z,3.23
2019-01-02T14:14:46.144Z,1.98
2019-01-02T14:17:17.460Z,2.80
2019-01-02T14:19:47.595Z,1.83
2019-01-02T14:22:17.668Z,2.50
2019-01-02T14:24:47.770Z,2.97
2019-01-02T14:27:18.195Z,2.40
2019-01-02T14:29:48.305Z,3.00
2019-01-02T14:32:18.423Z,2.47
2019-01-02T14:34:48.468Z,2.77
2019-01-02T14:37:18.546Z,3.87
2019-01-02T14:39:48.616Z,3.80
2019-01-02T14:42:18.721Z,4.10
2019-01-02T14:44:48.869Z,3.90
2019-01-02T14:47:19.387Z,4.45
2019-01-02T14:49:49.483Z,4.03
2019-01-02T14:52:19.626Z,4.53
2019-01-02T14:54:49.785Z,3.63
2019-01-02T14:57:19.966Z,2.87
2019-01-02T14:59:50.375Z,3.15
2019-01-02T15:02:20.662Z,1.97
2019-01-02T15:04:50.947Z,2.37
2019-01-02T15:07:21.316Z,2.08
2019-01-02T15:09:51.743Z,1.50
2019-01-02T15:12:21.862Z,2.00
2019-01-02T15:14:51.976Z,2.50
2019-01-02T15:17:22.400Z,1.80
2019-01-02T15:19:52.690Z,1.80
2019-01-02T15:22:23.156Z,1.83
2019-01-02T15:24:53.632Z,2.03
2019-01-02T15:27:23.865Z,1.30
2019-01-02T15:29:54.033Z,1.80
2019-01-02T15:32:24.153Z,3.03
2019-01-02T15:34:54.505Z,2.35
2019-01-02T15:37:24.804Z,2.60
2019-01-02T15:39:54.875Z,2.30
2019-01-02T15:42:25.111Z,2.20
2019-01-02T15:44:55.575Z,2.67
2019-01-02T15:47:25.720Z,1.83
2019-01-02T15:49:55.846Z,2.57
2019-01-02T15:52:26.091Z,2.60
2019-01-02T15:54:56.240Z,1.77
2019-01-02T15:57:26.772Z,2.20
2019-01-02T15:59:56.926Z,1.90
2019-01-02T16:02:26.980Z,1.90
2019-01-02T16:04:57.202Z,1.67
2019-01-02T16:07:27.545Z,1.70
2019-01-02T16:09:57.814Z,1.67
2019-01-02T16:12:27.989Z,1.80
2019-01-02T16:14:58.083Z,1.80
2019-01-02T16:17:28.348Z,1.50
2019-01-02T16:19:58.757Z,1.60
2019-01-02T16:22:28.963Z,1.70
2019-01-02T16:24:59.121Z,2.20
2019-01-02T16:27:29.354Z,3.00
2019-01-02T16:29:59.767Z,2.30
2019-01-02T16:32:29.864Z,1.83
2019-01-02T16:35:00.187Z,1.60
2019-01-02T16:37:30.350Z,1.90
2019-01-02T16:40:00.782Z,1.98
2019-01-02T16:42:30.946Z,2.10
2019-01-02T16:45:01.155Z,2.57
2019-01-02T16:47:31.500Z,2.33
2019-01-02T16:50:01.869Z,3.15
2019-01-02T16:52:31.978Z,10.40
2019-01-02T16:55:02.202Z,2.10
2019-01-02T16:57:32.308Z,2.97
2019-01-02T17:00:02.456Z,2.73
2019-01-02T17:02:32.830Z,2.80
2019-01-02T17:05:03.278Z,3.10
2019-01-02T17:07:33.498Z,3.10
2019-01-02T17:10:04.255Z,6.40
2019-01-02T17:12:34.387Z,3.20
2019-01-02T17:15:04.475Z,3.10
2019-01-02T17:17:34.825Z,3.85
2019-01-02T17:20:06.750Z,2.57
2019-01-02T17:22:37.037Z,6.27
2019-01-02T17:25:08.229Z,5.83
2019-01-02T17:27:38.447Z,3.40
2019-01-02T17:30:08.893Z,3.97
2019-01-02T17:32:39.136Z,3.07
2019-01-02T17:35:09.279Z,3.10
2019-01-02T17:37:39.397Z,3.40
2019-01-02T17:40:09.830Z,2.87
2019-01-02T17:42:40.142Z,3.40
2019-01-02T17:45:10.422Z,3.53
2019-01-02T17:47:40.520Z,3.17
2019-01-02T17:50:11.443Z,3.93
2019-01-02T17:52:42.576Z,2.60
2019-01-02T17:55:12.751Z,2.60
2019-01-02T17:57:43.208Z,2.95
2019-01-02T18:00:13.680Z,3.43
2019-01-02T18:02:44.065Z,3.50
2019-01-02T18:05:14.312Z,3.00
2019-01-02T18:07:44.705Z,3.27
2019-01-02T18:10:15.175Z,2.12
2019-01-02T18:12:45.290Z,3.07
2019-01-02T18:15:15.483Z,2.30
2019-01-02T18:17:45.644Z,3.70
2019-01-02T18:20:15.830Z,2.10
2019-01-02T18:22:46.269Z,2.90
2019-01-02T18:25:16.379Z,2.30
2019-01-02T18:27:46.626Z,2.80
2019-01-02T18:30:16.719Z,2.70
2019-01-02T18:32:46.870Z,2.87
2019-01-02T18:35:17.328Z,3.35
2019-01-02T18:37:47.482Z,2.83
2019-01-02T18:40:17.713Z,2.70
2019-01-02T18:42:47.896Z,2.23
2019-01-02T18:45:18.253Z,2.50
2019-01-02T18:47:48.688Z,2.57
2019-01-02T18:50:18.787Z,2.50
2019-01-02T18:52:48.956Z,2.27
2019-01-02T18:55:19.412Z,3.35
2019-01-02T18:57:49.540Z,2.83
2019-01-02T19:00:19.527Z,2.83
2019-01-02T19:02:49.662Z,2.90
2019-01-02T19:05:19.815Z,2.33
2019-01-02T19:07:49.969Z,3.00
2019-01-02T19:10:20.505Z,4.33
2019-01-02T19:12:51.562Z,3.90
2019-01-02T19:15:21.554Z,3.90
2019-01-02T19:17:51.649Z,4.00
2019-01-02T19:20:21.843Z,4.60
2019-01-02T19:22:52.058Z,3.90
2019-01-02T19:25:22.459Z,3.85
2019-01-02T19:27:52.672Z,4.90
2019-01-02T19:30:22.714Z,3.70
2019-01-02T19:32:52.929Z,4.27
2019-01-02T19:35:23.022Z,4.27
2019-01-02T19:37:53.573Z,4.10
2019-01-02T19:40:23.763Z,4.00
2019-01-02T19:42:53.941Z,3.50
2019-01-02T19:45:24.130Z,3.50
2019-01-02T19:47:54.584Z,2.90
2019-01-02T19:50:25.011Z,3.50
2019-01-02T19:52:55.244Z,5.53
2019-01-02T19:55:25.711Z,4.50
2019-01-02T19:57:55.814Z,4.47
2019-01-02T20:00:25.845Z,5.67
2019-01-02T20:02:56.004Z,6.73
2019-01-02T20:05:26.122Z,5.07
2019-01-02T20:07:56.348Z,4.57
2019-01-02T20:10:26.891Z,3.60
2019-01-02T20:12:57.106Z,4.10
2019-01-02T20:15:27.267Z,3.53
2019-01-02T20:17:57.714Z,4.60
2019-01-02T20:20:27.893Z,3.50
2019-01-02T20:22:58.805Z,4.77
2019-01-02T20:25:28.934Z,4.13
2019-01-02T20:27:59.132Z,3.93
2019-01-02T20:30:29.253Z,3.63
2019-01-02T20:32:59.441Z,4.03
2019-01-02T20:35:29.815Z,3.15
2019-01-02T20:37:59.929Z,4.10
2019-01-02T20:40:30.131Z,3.03
2019-01-02T20:43:00.475Z,3.10
2019-01-02T20:45:30.772Z,2.95
2019-01-02T20:48:01.282Z,3.30
2019-01-02T20:50:31.396Z,3.20
2019-01-02T20:53:01.804Z,2.47
2019-01-02T20:55:32.042Z,3.10
2019-01-02T20:58:02.234Z,2.83
2019-01-02T21:00:32.353Z,2.73
2019-01-02T21:03:02.571Z,3.53
2019-01-02T21:05:33.008Z,3.13
2019-01-02T21:08:03.126Z,2.83
2019-01-02T21:10:33.318Z,3.00
2019-01-02T21:13:03.585Z,4.00
2019-01-02T21:15:35.062Z,3.12
2019-01-02T21:18:05.243Z,2.87
2019-01-02T21:20:35.438Z,3.17
2019-01-02T21:23:05.619Z,3.17
2019-01-02T21:25:35.978Z,3.42
2019-01-02T21:28:07.445Z,4.70
2019-01-02T21:30:37.534Z,3.10
2019-01-02T21:33:07.743Z,2.63
2019-01-02T21:35:38.151Z,2.80
2019-01-02T21:38:08.428Z,3.07
2019-01-02T21:40:38.610Z,2.93
2019-01-02T21:43:09.002Z,2.90
2019-01-02T21:45:39.141Z,3.20
2019-01-02T21:48:09.728Z,3.20
2019-01-02T21:50:40.141Z,2.90
2019-01-02T21:53:10.698Z,3.10
2019-01-02T21:55:41.149Z,2.80
2019-01-02T21:58:11.341Z,2.60
2019-01-02T22:00:43.234Z,3.23
2019-01-02T22:03:13.347Z,3.10
2019-01-02T22:05:43.907Z,3.00
2019-01-02T22:08:14.812Z,2.70
2019-01-02T22:10:45.452Z,2.80
2019-01-02T22:13:15.643Z,2.90
2019-01-02T22:15:45.704Z,3.07
2019-01-02T22:18:16.210Z,2.50
2019-01-02T22:20:46.353Z,2.57
2019-01-02T22:23:16.651Z,2.40
2019-01-02T22:25:46.982Z,2.50
2019-01-02T22:28:17.494Z,2.33
2019-01-02T22:30:47.622Z,2.40
2019-01-02T22:33:17.915Z,3.47
2019-01-02T22:35:48.305Z,3.40
2019-01-02T22:38:18.715Z,2.17
2019-01-02T22:40:49.181Z,2.43
2019-01-02T22:43:19.546Z,3.07
2019-01-02T22:45:49.484Z,2.47
2019-01-02T22:48:35.448Z,2.67
2019-01-02T22:51:05.631Z,2.70
2019-01-02T22:53:35.827Z,2.30
2019-01-02T22:56:06.823Z,2.93
2019-01-02T22:58:37.408Z,2.40
2019-01-02T23:01:16.178Z,3.13
2019-01-02T23:04:11.765Z,2.70
2019-01-02T23:06:59.372Z,2.90
2019-01-02T23:09:48.756Z,2.30
2019-01-02T23:12:45.178Z,2.58
2019-01-02T23:15:51.631Z,3.13
2019-01-02T23:18:43.719Z,3.03
2019-01-02T23:21:37.213Z,3.00
2019-01-02T23:24:25.190Z,2.00
2019-01-02T23:27:13.176Z,2.90
2019-01-02T23:30:05.575Z,2.40
2019-01-02T23:33:04.176Z,2.13
2019-01-02T23:35:56.625Z,2.62
2019-01-02T23:38:44.467Z,2.50
2019-01-02T23:41:45.705Z,2.37
2019-01-02T23:44:33.627Z,2.50
2019-01-02T23:47:21.470Z,3.27
2019-01-02T23:50:08.881Z,2.07
2019-01-02T23:52:56.434Z,2.47
2019-01-02T23:55:48.548Z,2.70
2019-01-02T23:58:36.342Z,2.25
